Time;durP1;ratioP1;P1;durP2;ratioP2;P2;SDS_P1;SDS_P2;PMS_P1;PMS_P2;Temp;Humidity;BMP_temperature;BMP_pressure;BME280_temperature;BME280_humidity;BME280_pressure;Samples;Min_cycle;Max_cycle;Signal;HPM_P1;HPM_P2
2023/12/03 00:00:50;;;;;;;;;;;0.70;99.90;;;;;;5133126;27;19954;-79
2023/12/03 00:03:16;;;;;;;;;;;0.60;99.90;;;;;;5133289;27;19970;-80
2023/12/03 00:05:42;;;;;;;;;;;0.60;99.90;;;;;;5134809;27;19967;-80
2023/12/03 00:08:08;;;;;;;;;;;0.50;99.90;;;;;;5141901;27;19929;-80
2023/12/03 00:10:33;;;;;;;;;;;0.50;99.90;;;;;;5132026;27;19971;-79
2023/12/03 00:12:59;;;;;;;;;;;0.50;99.90;;;;;;5131722;27;19934;-80
2023/12/03 00:15:24;;;;;;;;;;;0.50;99.90;;;;;;5150764;27;20331;-80
2023/12/03 00:17:51;;;;;;;;;;;0.40;99.90;;;;;;5147155;27;19941;-80
2023/12/03 00:20:16;;;;;;;;;;;0.50;99.90;;;;;;5133807;27;20282;-80
2023/12/03 00:22:42;;;;;;;;;;;0.40;99.90;;;;;;5130100;27;19919;-80
2023/12/03 00:25:08;;;;;;;;;;;0.40;99.90;;;;;;5132005;27;19931;-79
2023/12/03 00:27:33;;;;;;;;;;;0.30;99.90;;;;;;5116689;27;20646;-80
2023/12/03 00:29:59;;;;;;;;;;;0.30;99.90;;;;;;5133228;27;19915;-80
2023/12/03 00:32:24;;;;;;;;;;;0.30;99.90;;;;;;5121221;27;20013;-80
2023/12/03 00:34:50;;;;;;;;;;;1.10;99.90;;;;;;5123577;27;19919;-80
2023/12/03 00:37:15;;;;;;;;;;;0.30;99.90;;;;;;5127481;27;19923;-80
2023/12/03 00:39:41;;;;;;;;;;;0.20;99.90;;;;;;5145162;27;20338;-80
2023/12/03 00:42:07;;;;;;;;;;;0.20;99.90;;;;;;5120347;27;20431;-80
2023/12/03 00:44:32;;;;;;;;;;;0.20;99.90;;;;;;5122699;27;19937;-79
2023/12/03 00:46:58;;;;;;;;;;;0.20;99.90;;;;;;5127744;27;19927;-80
2023/12/03 00:49:23;;;;;;;;;;;0.10;99.90;;;;;;5123576;27;19923;-80
2023/12/03 00:51:49;;;;;;;;;;;0.10;99.90;;;;;;5122014;27;19919;-79
2023/12/03 00:54:14;;;;;;;;;;;0.10;99.90;;;;;;5132110;27;20343;-79
2023/12/03 00:56:40;;;;;;;;;;;0.00;99.90;;;;;;5124973;27;20044;-80
2023/12/03 00:59:06;;;;;;;;;;;0.10;99.90;;;;;;5126868;27;19919;-80
2023/12/03 01:01:32;;;;;;;;;;;0.00;99.90;;;;;;5136930;27;20300;-80
2023/12/03 01:03:57;;;;;;;;;;;0.00;99.90;;;;;;5151366;27;19923;-80
2023/12/03 01:06:23;;;;;;;;;;;0.00;99.90;;;;;;5139809;27;19919;-80
2023/12/03 01:08:49;;;;;;;;;;;0.00;99.90;;;;;;5149650;27;19919;-80
2023/12/03 01:11:14;;;;;;;;;;;-0.10;99.90;;;;;;5147194;27;19926;-80
2023/12/03 01:13:40;;;;;;;;;;;0.00;99.90;;;;;;5116303;27;20355;-80
2023/12/03 01:16:13;;;;;;;;;;;-0.10;99.90;;;;;;5134914;27;19919;-80
2023/12/03 01:18:38;;;;;;;;;;;-0.10;99.90;;;;;;5163384;27;20009;-79
2023/12/03 01:21:04;;;;;;;;;;;-0.10;99.90;;;;;;5131681;27;20003;-80
2023/12/03 01:23:29;;;;;;;;;;;-0.10;99.90;;;;;;5129650;27;20377;-80
2023/12/03 01:25:55;;;;;;;;;;;1.10;99.90;;;;;;5110684;27;19919;-80
2023/12/03 01:28:21;;;;;;;;;;;-0.20;99.90;;;;;;5127902;27;19919;-79
2023/12/03 01:30:47;;;;;;;;;;;-0.20;99.90;;;;;;5139246;27;19925;-80
2023/12/03 01:33:12;;;;;;;;;;;-0.20;99.90;;;;;;5145286;27;19919;-80
2023/12/03 01:35:38;;;;;;;;;;;-0.20;99.90;;;;;;5131712;27;20293;-79
2023/12/03 01:38:03;;;;;;;;;;;-0.10;99.90;;;;;;5132071;27;19926;-80
2023/12/03 01:40:29;;;;;;;;;;;-0.10;99.90;;;;;;5130030;27;19919;-79
2023/12/03 01:42:54;;;;;;;;;;;-0.30;99.90;;;;;;5132336;27;19966;-80
2023/12/03 01:45:20;;;;;;;;;;;-0.30;99.90;;;;;;5130484;27;19919;-79
2023/12/03 01:47:46;;;;;;;;;;;-0.30;99.90;;;;;;5131999;27;19968;-79
2023/12/03 01:50:12;;;;;;;;;;;-0.30;99.90;;;;;;5145548;27;19923;-79
2023/12/03 01:52:38;;;;;;;;;;;-0.30;99.90;;;;;;5132849;27;19930;-78
2023/12/03 01:55:05;;;;;;;;;;;-0.30;99.90;;;;;;5131027;27;19915;-79
2023/12/03 01:57:31;;;;;;;;;;;-0.30;99.90;;;;;;5130944;27;19969;-79
2023/12/03 01:59:56;;;;;;;;;;;-0.40;99.90;;;;;;5128724;27;19970;-79
2023/12/03 02:02:22;;;;;;;;;;;-0.40;99.90;;;;;;5155276;27;19935;-79
2023/12/03 02:04:48;;;;;;;;;;;-0.40;99.90;;;;;;5134536;27;19937;-79
2023/12/03 02:07:13;;;;;;;;;;;-0.40;99.90;;;;;;5168256;27;19919;-79
2023/12/03 02:09:39;;;;;;;;;;;-0.40;99.90;;;;;;5165016;27;19923;-79
2023/12/03 02:12:05;;;;;;;;;;;-0.40;99.90;;;;;;5154129;27;19972;-79
2023/12/03 02:14:30;;;;;;;;;;;-0.40;99.90;;;;;;5130461;27;20379;-79
2023/12/03 02:16:56;;;;;;;;;;;-0.50;99.90;;;;;;5145499;27;19951;-78
2023/12/03 02:19:21;;;;;;;;;;;-0.50;99.90;;;;;;5120013;27;19920;-79
2023/12/03 02:21:47;;;;;;;;;;;0.10;99.90;;;;;;5145122;27;19927;-79
2023/12/03 02:24:12;;;;;;;;;;;-0.50;99.90;;;;;;5132248;27;20340;-78
2023/12/03 02:26:38;;;;;;;;;;;-0.50;99.90;;;;;;5116943;27;19927;-79
2023/12/03 02:29:04;;;;;;;;;;;-0.50;99.90;;;;;;5127192;27;19919;-80
2023/12/03 02:31:30;;;;;;;;;;;-0.50;99.90;;;;;;5133624;27;19922;-78
2023/12/03 02:34:04;;;;;;;;;;;-0.60;99.90;;;;;;5131212;27;20278;-78
2023/12/03 02:36:30;;;;;;;;;;;-0.50;99.90;;;;;;5126251;27;19919;-80
2023/12/03 02:38:55;;;;;;;;;;;-0.60;99.90;;;;;;5134801;27;19926;-77
2023/12/03 02:41:21;;;;;;;;;;;-0.60;99.90;;;;;;5127825;27;19923;-77
2023/12/03 02:43:46;;;;;;;;;;;-0.60;99.90;;;;;;5145359;27;20450;-80
2023/12/03 02:46:12;;;;;;;;;;;-0.60;99.90;;;;;;5134622;27;19958;-77
2023/12/03 02:48:37;;;;;;;;;;;-0.60;99.90;;;;;;5170079;27;19974;-77
2023/12/03 02:51:03;;;;;;;;;;;-0.60;99.90;;;;;;5120699;27;19979;-78
2023/12/03 02:53:29;;;;;;;;;;;-0.60;99.90;;;;;;5131945;27;19926;-77
2023/12/03 02:55:54;;;;;;;;;;;0.90;99.90;;;;;;5134215;27;20332;-77
2023/12/03 02:58:20;;;;;;;;;;;-0.60;99.90;;;;;;5132746;27;19926;-77
2023/12/03 03:00:46;;;;;;;;;;;-0.60;99.90;;;;;;5136165;27;19964;-78
2023/12/03 03:03:11;;;;;;;;;;;-0.60;99.90;;;;;;5153655;27;19919;-78
2023/12/03 03:05:37;;;;;;;;;;;-0.70;99.90;;;;;;5133511;27;19958;-77
2023/12/03 03:08:03;;;;;;;;;;;-0.70;99.90;;;;;;5153491;27;19926;-77
2023/12/03 03:10:28;;;;;;;;;;;-0.70;99.90;;;;;;5132664;27;19926;-78
2023/12/03 03:12:54;;;;;;;;;;;-0.70;99.90;;;;;;5153059;27;20281;-78
2023/12/03 03:15:19;;;;;;;;;;;-0.70;99.90;;;;;;5134074;27;20413;-77
2023/12/03 03:17:45;;;;;;;;;;;-0.70;99.90;;;;;;5125227;27;20437;-78
2023/12/03 03:20:10;;;;;;;;;;;-0.70;99.90;;;;;;5117310;27;20889;-78
2023/12/03 03:22:36;;;;;;;;;;;-0.70;99.90;;;;;;5124370;27;19927;-77
2023/12/03 03:25:03;;;;;;;;;;;-0.70;99.90;;;;;;5119952;27;19927;-77
2023/12/03 03:27:28;;;;;;;;;;;-0.70;99.90;;;;;;5132070;27;19926;-78
2023/12/03 03:29:54;;;;;;;;;;;-0.70;99.90;;;;;;5118064;27;19920;-77
2023/12/03 03:32:19;;;;;;;;;;;-0.70;99.90;;;;;;5139117;27;19930;-77
2023/12/03 03:34:45;;;;;;;;;;;-0.80;99.90;;;;;;5138464;27;19919;-77
2023/12/03 03:37:11;;;;;;;;;;;-0.80;99.90;;;;;;5152057;27;20381;-78
2023/12/03 03:39:36;;;;;;;;;;;-0.40;99.90;;;;;;5150138;27;20440;-78
2023/12/03 03:42:03;;;;;;;;;;;-0.80;99.90;;;;;;5128614;27;20010;-77
2023/12/03 03:44:28;;;;;;;;;;;-0.80;99.90;;;;;;5134698;27;19919;-77
2023/12/03 03:46:54;;;;;;;;;;;-0.80;99.90;;;;;;5137732;27;19997;-77
2023/12/03 03:49:20;;;;;;;;;;;-0.30;99.90;;;;;;5151011;27;20005;-77
2023/12/03 03:51:46;;;;;;;;;;;-0.90;99.90;;;;;;5132153;27;19926;-77
2023/12/03 03:54:11;;;;;;;;;;;-0.90;99.90;;;;;;5133996;27;19922;-76
2023/12/03 03:56:37;;;;;;;;;;;-0.90;99.90;;;;;;5131907;27;20331;-77
2023/12/03 03:59:03;;;;;;;;;;;-0.90;99.90;;;;;;5134246;27;19925;-76
2023/12/03 04:01:28;;;;;;;;;;;-0.90;99.90;;;;;;5133590;27;19972;-75
2023/12/03 04:03:54;;;;;;;;;;;-0.50;99.90;;;;;;5132324;27;19919;-76
2023/12/03 04:06:19;;;;;;;;;;;-0.90;99.90;;;;;;5130257;27;20346;-76
2023/12/03 04:08:45;;;;;;;;;;;-0.70;99.90;;;;;;5149800;27;20309;-76
2023/12/03 04:11:10;;;;;;;;;;;-1.00;99.90;;;;;;5133967;27;19934;-75
2023/12/03 04:13:36;;;;;;;;;;;-1.30;99.90;;;;;;5140491;27;19919;-75
2023/12/03 04:16:01;;;;;;;;;;;-0.40;99.90;;;;;;5116581;27;19919;-76
2023/12/03 04:18:27;;;;;;;;;;;-1.00;99.90;;;;;;5120477;27;19923;-76
2023/12/03 04:20:52;;;;;;;;;;;-1.00;99.90;;;;;;5130763;27;19958;-76
2023/12/03 04:23:18;;;;;;;;;;;-1.00;99.90;;;;;;5130854;27;19919;-75
2023/12/03 04:25:43;;;;;;;;;;;-1.00;99.90;;;;;;5122445;27;20063;-76
2023/12/03 04:28:09;;;;;;;;;;;-1.00;99.90;;;;;;5129939;27;19919;-75
2023/12/03 04:30:35;;;;;;;;;;;-0.70;99.90;;;;;;5128091;27;19929;-76
2023/12/03 04:33:00;;;;;;;;;;;-1.00;99.90;;;;;;5119753;27;20052;-76
2023/12/03 04:35:26;;;;;;;;;;;-1.10;99.90;;;;;;5116977;27;20294;-75
2023/12/03 04:37:51;;;;;;;;;;;-1.10;99.90;;;;;;5131765;27;19919;-76
2023/12/03 04:40:17;;;;;;;;;;;-1.10;99.90;;;;;;5140660;27;19929;-75
2023/12/03 04:42:43;;;;;;;;;;;-1.00;99.90;;;;;;5132330;27;19923;-76
2023/12/03 04:45:08;;;;;;;;;;;-1.10;99.90;;;;;;5131987;27;21173;-76
2023/12/03 04:47:34;;;;;;;;;;;-1.10;99.90;;;;;;5133066;27;19918;-76
2023/12/03 04:50:00;;;;;;;;;;;0.30;99.90;;;;;;5115363;27;19989;-76
2023/12/03 04:52:25;;;;;;;;;;;-1.10;99.90;;;;;;5126254;27;19918;-76
2023/12/03 04:54:51;;;;;;;;;;;-1.20;99.90;;;;;;5117203;27;20421;-75
2023/12/03 04:57:16;;;;;;;;;;;-1.10;99.90;;;;;;5128057;27;19919;-75
2023/12/03 04:59:42;;;;;;;;;;;-1.20;99.90;;;;;;5111653;27;20019;-75
2023/12/03 05:02:07;;;;;;;;;;;-1.10;99.90;;;;;;5127119;27;19922;-77
2023/12/03 05:04:33;;;;;;;;;;;-1.10;99.90;;;;;;5149072;27;20010;-76
2023/12/03 05:06:58;;;;;;;;;;;-1.10;99.90;;;;;;5122093;27;19927;-76
2023/12/03 05:09:24;;;;;;;;;;;-1.10;99.90;;;;;;5113148;27;19926;-77
2023/12/03 05:11:49;;;;;;;;;;;-1.10;99.90;;;;;;5138535;27;19942;-76
2023/12/03 05:14:15;;;;;;;;;;;-1.10;99.90;;;;;;5115024;27;20002;-76
2023/12/03 05:16:41;;;;;;;;;;;-0.70;99.90;;;;;;5141800;27;19988;-76
2023/12/03 05:19:06;;;;;;;;;;;-1.00;99.90;;;;;;5121089;27;19962;-76
2023/12/03 05:21:32;;;;;;;;;;;-1.00;99.90;;;;;;5140268;27;19919;-76
2023/12/03 05:23:58;;;;;;;;;;;-1.00;99.90;;;;;;5147415;27;21418;-75
2023/12/03 05:26:24;;;;;;;;;;;-0.90;99.90;;;;;;5122282;27;19930;-76
2023/12/03 05:28:49;;;;;;;;;;;-0.90;99.90;;;;;;5146971;27;19944;-77
2023/12/03 05:31:15;;;;;;;;;;;-0.80;99.90;;;;;;5123898;27;19919;-77
2023/12/03 05:33:41;;;;;;;;;;;-0.60;99.90;;;;;;5119089;27;19923;-77
2023/12/03 05:36:07;;;;;;;;;;;-0.80;99.90;;;;;;5138816;27;19919;-76
2023/12/03 05:38:33;;;;;;;;;;;-0.70;99.90;;;;;;5146131;27;19919;-77
2023/12/03 05:40:58;;;;;;;;;;;-0.70;99.90;;;;;;5126944;27;19923;-77
2023/12/03 05:43:24;;;;;;;;;;;-0.70;99.90;;;;;;5124176;27;20397;-77
2023/12/03 05:45:49;;;;;;;;;;;-0.60;99.90;;;;;;5144816;27;20366;-77
2023/12/03 05:48:15;;;;;;;;;;;0.00;99.90;;;;;;5126290;27;19922;-77
2023/12/03 05:50:40;;;;;;;;;;;-0.20;99.90;;;;;;5120228;27;19925;-77
2023/12/03 05:53:07;;;;;;;;;;;-0.60;99.90;;;;;;5131929;27;19962;-77
2023/12/03 05:55:32;;;;;;;;;;;-0.50;99.90;;;;;;5126766;27;19915;-77
2023/12/03 05:57:58;;;;;;;;;;;-0.50;99.90;;;;;;5123412;27;19939;-77
2023/12/03 06:00:23;;;;;;;;;;;-0.50;99.90;;;;;;5120054;27;20355;-77
2023/12/03 06:02:49;;;;;;;;;;;-0.40;99.90;;;;;;5129278;27;20274;-77
2023/12/03 06:05:14;;;;;;;;;;;-0.40;99.90;;;;;;5120115;27;19919;-77
2023/12/03 06:07:40;;;;;;;;;;;-0.40;99.90;;;;;;5123624;27;19926;-78
2023/12/03 06:10:06;;;;;;;;;;;-0.40;99.90;;;;;;5129068;27;19970;-77
2023/12/03 06:12:32;;;;;;;;;;;-0.30;99.90;;;;;;5130779;27;19927;-78
2023/12/03 06:14:57;;;;;;;;;;;-0.30;99.90;;;;;;5137575;27;19927;-77
2023/12/03 06:17:23;;;;;;;;;;;-0.20;99.90;;;;;;5125587;27;19919;-77
2023/12/03 06:19:48;;;;;;;;;;;-0.20;99.90;;;;;;5116082;28;19958;-76
2023/12/03 06:22:14;;;;;;;;;;;-0.20;99.90;;;;;;5117249;28;19920;-77
2023/12/03 06:24:39;;;;;;;;;;;-0.20;99.90;;;;;;5119704;28;20386;-78
2023/12/03 06:27:05;;;;;;;;;;;-0.20;99.90;;;;;;5126397;28;20358;-77
2023/12/03 06:29:31;;;;;;;;;;;-0.10;99.90;;;;;;5114654;28;19919;-78
2023/12/03 06:31:56;;;;;;;;;;;0.00;99.90;;;;;;5123471;28;19920;-77
2023/12/03 06:34:22;;;;;;;;;;;-0.10;99.90;;;;;;5127117;28;19919;-78
2023/12/03 06:36:47;;;;;;;;;;;0.00;99.90;;;;;;5126248;28;19927;-77
2023/12/03 06:39:13;;;;;;;;;;;0.00;99.90;;;;;;5115343;28;19919;-77
2023/12/03 06:41:39;;;;;;;;;;;0.00;99.90;;;;;;5120488;28;20328;-77
2023/12/03 06:44:04;;;;;;;;;;;0.10;99.90;;;;;;5108251;28;19919;-77
2023/12/03 06:46:30;;;;;;;;;;;0.10;99.90;;;;;;5110731;28;19926;-77
2023/12/03 06:48:56;;;;;;;;;;;0.20;99.90;;;;;;5120133;27;19926;-77
2023/12/03 06:51:21;;;;;;;;;;;0.20;99.90;;;;;;5128090;27;19994;-77
2023/12/03 06:53:47;;;;;;;;;;;0.20;99.90;;;;;;5120760;27;20046;-77
2023/12/03 06:56:12;;;;;;;;;;;0.20;99.90;;;;;;5129171;27;19964;-77
2023/12/03 06:58:38;;;;;;;;;;;0.30;99.90;;;;;;5116423;27;19919;-78
2023/12/03 07:01:04;;;;;;;;;;;1.30;99.90;;;;;;5128389;27;20302;-77
2023/12/03 07:03:29;;;;;;;;;;;0.30;99.90;;;;;;5126133;27;19926;-77
2023/12/03 07:05:55;;;;;;;;;;;0.30;99.90;;;;;;5129889;27;19919;-78
2023/12/03 07:08:20;;;;;;;;;;;0.30;99.90;;;;;;5130036;27;19959;-77
2023/12/03 07:10:46;;;;;;;;;;;0.30;99.90;;;;;;5122892;27;19919;-78
2023/12/03 07:13:11;;;;;;;;;;;0.30;99.90;;;;;;5128144;27;20007;-78
2023/12/03 07:15:37;;;;;;;;;;;0.30;99.90;;;;;;5126460;27;19929;-78
2023/12/03 07:18:03;;;;;;;;;;;0.30;99.90;;;;;;5128107;27;19925;-78
2023/12/03 07:20:28;;;;;;;;;;;0.40;99.90;;;;;;5121026;27;19963;-77
2023/12/03 07:22:55;;;;;;;;;;;0.40;99.90;;;;;;5125119;27;19920;-77
2023/12/03 07:25:24;;;;;;;;;;;0.80;99.90;;;;;;5121455;27;19951;-78
2023/12/03 07:27:49;;;;;;;;;;;0.40;99.90;;;;;;5114225;27;20263;-77
2023/12/03 07:30:15;;;;;;;;;;;0.40;99.90;;;;;;5111860;27;19969;-76
2023/12/03 07:32:40;;;;;;;;;;;0.40;99.90;;;;;;5118072;27;19967;-78
2023/12/03 07:35:06;;;;;;;;;;;0.50;99.90;;;;;;5125776;27;19919;-78
2023/12/03 07:37:32;;;;;;;;;;;0.50;99.90;;;;;;5129780;27;19934;-78
2023/12/03 07:39:57;;;;;;;;;;;0.50;99.90;;;;;;5128203;27;19978;-76
2023/12/03 07:42:26;;;;;;;;;;;0.50;99.90;;;;;;5117912;27;20340;-77
2023/12/03 07:44:51;;;;;;;;;;;0.60;99.90;;;;;;5128916;27;19930;-77
2023/12/03 07:47:17;;;;;;;;;;;0.70;99.90;;;;;;5120151;27;19920;-76
2023/12/03 07:49:43;;;;;;;;;;;0.60;99.90;;;;;;5124079;27;20355;-78
2023/12/03 07:52:08;;;;;;;;;;;0.60;99.90;;;;;;5126248;27;19934;-77
2023/12/03 07:54:34;;;;;;;;;;;0.60;99.90;;;;;;5130076;27;20342;-77
2023/12/03 07:56:59;;;;;;;;;;;1.20;99.90;;;;;;5127466;27;19919;-77
2023/12/03 07:59:25;;;;;;;;;;;0.90;99.90;;;;;;5128639;27;20480;-78
2023/12/03 08:01:50;;;;;;;;;;;0.70;99.90;;;;;;5119529;27;19971;-76
2023/12/03 08:04:16;;;;;;;;;;;0.70;99.90;;;;;;5124240;27;19934;-76
2023/12/03 08:06:41;;;;;;;;;;;0.70;99.90;;;;;;5117379;27;19946;-78
2023/12/03 08:09:07;;;;;;;;;;;0.70;99.90;;;;;;5122588;27;19923;-77
2023/12/03 08:11:32;;;;;;;;;;;0.80;99.90;;;;;;5119412;27;19978;-76
2023/12/03 08:13:58;;;;;;;;;;;0.80;99.90;;;;;;5113430;27;19924;-77
2023/12/03 08:16:24;;;;;;;;;;;1.20;99.90;;;;;;5122552;27;20679;-78
2023/12/03 08:18:49;;;;;;;;;;;0.80;99.90;;;;;;5129352;27;20014;-78
2023/12/03 08:21:15;;;;;;;;;;;0.80;99.90;;;;;;5127959;27;20056;-78
2023/12/03 08:23:41;;;;;;;;;;;0.80;99.90;;;;;;5123778;27;20052;-79
2023/12/03 08:26:07;;;;;;;;;;;0.90;99.90;;;;;;5123083;27;20006;-77
2023/12/03 08:28:32;;;;;;;;;;;0.90;99.90;;;;;;5120205;27;20597;-78
2023/12/03 08:30:58;;;;;;;;;;;0.90;99.90;;;;;;5119222;27;20690;-77
2023/12/03 08:33:24;;;;;;;;;;;0.90;99.90;;;;;;5115486;27;20306;-78
2023/12/03 08:35:56;;;;;;;;;;;1.70;99.90;;;;;;5122698;27;19919;-80
2023/12/03 08:38:24;;;;;;;;;;;0.90;99.90;;;;;;5127597;27;20320;-80
2023/12/03 08:40:51;;;;;;;;;;;0.90;99.90;;;;;;5112766;27;19919;-77
2023/12/03 08:43:16;;;;;;;;;;;0.90;99.90;;;;;;5117461;27;19923;-78
2023/12/03 08:45:42;;;;;;;;;;;1.00;99.90;;;;;;5127976;27;20065;-78
2023/12/03 08:48:08;;;;;;;;;;;1.00;99.90;;;;;;5124712;27;19919;-77
2023/12/03 08:50:33;;;;;;;;;;;0.90;99.90;;;;;;5117528;27;19926;-78
2023/12/03 08:52:59;;;;;;;;;;;1.30;99.90;;;;;;5123412;27;20271;-78
2023/12/03 08:55:25;;;;;;;;;;;1.00;99.90;;;;;;5124196;27;20014;-76
2023/12/03 08:57:50;;;;;;;;;;;1.10;99.90;;;;;;5135408;27;20267;-77
2023/12/03 09:00:16;;;;;;;;;;;1.50;99.90;;;;;;5109271;28;19920;-77
2023/12/03 09:02:45;;;;;;;;;;;1.00;99.90;;;;;;5121219;27;19919;-78
2023/12/03 09:05:11;;;;;;;;;;;1.10;99.90;;;;;;5122473;27;20710;-77
2023/12/03 09:07:37;;;;;;;;;;;1.00;99.90;;;;;;5109942;27;19920;-78
2023/12/03 09:10:03;;;;;;;;;;;1.00;99.90;;;;;;5119599;27;19919;-77
2023/12/03 09:12:28;;;;;;;;;;;1.10;99.90;;;;;;5116038;27;19972;-77
2023/12/03 09:14:54;;;;;;;;;;;1.20;99.90;;;;;;5113565;27;19920;-77
2023/12/03 09:17:19;;;;;;;;;;;1.10;99.90;;;;;;5109094;28;19920;-80
2023/12/03 09:19:45;;;;;;;;;;;1.10;99.90;;;;;;5107832;28;19969;-76
2023/12/03 09:22:10;;;;;;;;;;;1.10;99.90;;;;;;5109027;28;19953;-80
2023/12/03 09:24:36;;;;;;;;;;;1.30;99.90;;;;;;5102526;27;19920;-77
2023/12/03 09:27:01;;;;;;;;;;;1.20;99.90;;;;;;5097528;28;19920;-76
2023/12/03 09:29:27;;;;;;;;;;;1.50;99.90;;;;;;5100902;27;20010;-77
2023/12/03 09:31:53;;;;;;;;;;;1.20;99.90;;;;;;5096460;28;19920;-76
2023/12/03 09:34:18;;;;;;;;;;;1.30;99.90;;;;;;5099245;28;19930;-77
2023/12/03 09:36:44;;;;;;;;;;;1.30;99.90;;;;;;5105551;28;20377;-77
2023/12/03 09:39:09;;;;;;;;;;;1.30;99.90;;;;;;5108707;28;19979;-76
2023/12/03 09:41:40;;;;;;;;;;;1.40;99.90;;;;;;5106387;28;20398;-76
2023/12/03 09:44:16;;;;;;;;;;;1.40;99.90;;;;;;5115112;27;20336;-77
2023/12/03 09:46:43;;;;;;;;;;;2.00;99.90;;;;;;5112337;27;20298;-77
2023/12/03 09:49:10;;;;;;;;;;;1.50;99.90;;;;;;5108788;28;19927;-77
2023/12/03 09:51:39;;;;;;;;;;;1.50;99.90;;;;;;5099421;28;19919;-77
2023/12/03 09:54:05;;;;;;;;;;;1.60;99.90;;;;;;5088506;28;19977;-77
2023/12/03 09:56:31;;;;;;;;;;;1.80;99.90;;;;;;5094650;28;19919;-76
2023/12/03 09:58:56;;;;;;;;;;;1.60;99.90;;;;;;5117007;28;19926;-76
2023/12/03 10:01:22;;;;;;;;;;;1.70;99.90;;;;;;5114065;28;19962;-77
2023/12/03 10:03:49;;;;;;;;;;;1.70;99.90;;;;;;5109615;28;19954;-78
2023/12/03 10:06:19;;;;;;;;;;;1.90;99.90;;;;;;5103845;28;20323;-78
2023/12/03 10:08:47;;;;;;;;;;;2.10;99.90;;;;;;5088065;28;20034;-78
2023/12/03 10:11:16;;;;;;;;;;;2.20;99.90;;;;;;5107303;28;19926;-78
2023/12/03 10:13:42;;;;;;;;;;;1.80;99.90;;;;;;5107892;28;19966;-78
2023/12/03 10:16:11;;;;;;;;;;;2.10;99.90;;;;;;5107182;28;19978;-76
2023/12/03 10:18:37;;;;;;;;;;;2.10;99.90;;;;;;5104966;28;20379;-76
2023/12/03 10:21:07;;;;;;;;;;;2.50;99.90;;;;;;5100746;28;19995;-78
2023/12/03 10:23:33;;;;;;;;;;;2.20;99.90;;;;;;5100945;28;20052;-76
2023/12/03 10:26:09;;;;;;;;;;;2.10;99.90;;;;;;5103860;28;19923;-77
2023/12/03 10:28:34;;;;;;;;;;;2.20;99.90;;;;;;5102982;28;19973;-79
2023/12/03 10:31:00;;;;;;;;;;;2.90;99.90;;;;;;5111155;28;20336;-79
2023/12/03 10:33:26;;;;;;;;;;;2.30;99.90;;;;;;5097272;28;19920;-78
2023/12/03 10:35:51;;;;;;;;;;;2.30;99.90;;;;;;5099883;27;19919;-80
2023/12/03 10:38:17;;;;;;;;;;;2.80;99.90;;;;;;5112312;28;19924;-80
2023/12/03 10:40:43;;;;;;;;;;;2.70;99.90;;;;;;5107794;28;19955;-80
2023/12/03 10:43:11;;;;;;;;;;;3.20;99.90;;;;;;5113439;27;19919;-79
2023/12/03 10:45:36;;;;;;;;;;;3.50;99.90;;;;;;5110633;28;19924;-79
2023/12/03 10:48:04;;;;;;;;;;;3.90;99.90;;;;;;5112407;28;19972;-81
2023/12/03 10:50:30;;;;;;;;;;;4.90;99.90;;;;;;5105380;28;20015;-81
2023/12/03 10:52:58;;;;;;;;;;;5.90;99.90;;;;;;5106572;28;20370;-77
2023/12/03 10:55:23;;;;;;;;;;;6.60;99.90;;;;;;5105858;28;20011;-78
2023/12/03 10:57:58;;;;;;;;;;;6.70;99.90;;;;;;5102220;28;20634;-79
2023/12/03 11:00:24;;;;;;;;;;;6.90;99.90;;;;;;5101467;28;19920;-75
2023/12/03 11:03:13;;;;;;;;;;;6.80;99.90;;;;;;5101815;28;19924;-73
2023/12/03 11:05:40;;;;;;;;;;;6.80;99.90;;;;;;5105251;28;19920;-74
2023/12/03 11:08:06;;;;;;;;;;;6.60;99.90;;;;;;5109628;27;19972;-73
2023/12/03 11:10:31;;;;;;;;;;;5.90;99.90;;;;;;5108249;28;19915;-73
2023/12/03 11:12:57;;;;;;;;;;;5.40;99.90;;;;;;5112153;28;19927;-73
2023/12/03 11:15:23;;;;;;;;;;;5.10;99.90;;;;;;5099703;28;19922;-72
2023/12/03 11:17:49;;;;;;;;;;;4.80;99.90;;;;;;5109509;27;19919;-73
2023/12/03 11:20:18;;;;;;;;;;;4.60;99.90;;;;;;5141887;27;19927;-73
2023/12/03 11:22:50;;;;;;;;;;;4.40;99.90;;;;;;5128166;27;19923;-71
2023/12/03 11:25:18;;;;;;;;;;;4.20;99.90;;;;;;5126109;27;19922;-74
2023/12/03 11:27:45;;;;;;;;;;;4.10;99.90;;;;;;5137184;27;19918;-74
2023/12/03 11:30:11;;;;;;;;;;;4.00;99.90;;;;;;5138531;27;20426;-73
2023/12/03 11:32:37;;;;;;;;;;;3.90;99.90;;;;;;5111710;27;19931;-71
2023/12/03 11:35:03;;;;;;;;;;;3.30;99.90;;;;;;5124386;27;19946;-73
2023/12/03 11:37:30;;;;;;;;;;;3.90;99.90;;;;;;5131015;27;20290;-73
2023/12/03 11:39:56;;;;;;;;;;;3.90;99.90;;;;;;5133741;27;20062;-73
2023/12/03 11:42:25;;;;;;;;;;;3.90;99.90;;;;;;5137196;27;19918;-73
2023/12/03 11:45:10;;;;;;;;;;;3.20;99.90;;;;;;5152478;27;19922;-73
2023/12/03 11:47:36;;;;;;;;;;;4.30;99.90;;;;;;5132779;27;19919;-73
2023/12/03 11:50:02;;;;;;;;;;;4.90;99.90;;;;;;5132745;27;19934;-73
2023/12/03 11:52:27;;;;;;;;;;;4.50;99.90;;;;;;5135037;27;20084;-73
2023/12/03 11:55:05;;;;;;;;;;;4.50;99.90;;;;;;5133940;27;19978;-73
2023/12/03 11:57:32;;;;;;;;;;;4.40;99.90;;;;;;5134523;27;20033;-73
2023/12/03 12:00:01;;;;;;;;;;;4.20;99.90;;;;;;5131456;27;19950;-74
2023/12/03 12:02:26;;;;;;;;;;;4.00;99.90;;;;;;5127129;27;19931;-72
2023/12/03 12:04:52;;;;;;;;;;;3.90;99.90;;;;;;5133550;27;19948;-72
2023/12/03 12:07:18;;;;;;;;;;;4.60;99.90;;;;;;5151164;27;19926;-73
2023/12/03 12:09:46;;;;;;;;;;;3.90;99.90;;;;;;5148433;27;19979;-73
2023/12/03 12:12:14;;;;;;;;;;;3.70;99.90;;;;;;5123084;27;19919;-73
2023/12/03 12:14:39;;;;;;;;;;;3.50;99.90;;;;;;5117904;27;20067;-73
2023/12/03 12:17:08;;;;;;;;;;;3.40;99.90;;;;;;5131851;27;19923;-73
2023/12/03 12:19:33;;;;;;;;;;;3.30;99.90;;;;;;5106989;27;19927;-73
2023/12/03 12:21:59;;;;;;;;;;;3.30;99.90;;;;;;5107949;28;19926;-73
2023/12/03 12:24:25;;;;;;;;;;;3.20;99.90;;;;;;5111610;28;20381;-73
2023/12/03 12:26:50;;;;;;;;;;;3.70;99.90;;;;;;5108028;28;19920;-72
2023/12/03 12:29:17;;;;;;;;;;;3.20;99.90;;;;;;5109292;28;20283;-71
2023/12/03 12:31:43;;;;;;;;;;;3.50;99.90;;;;;;5108721;28;19920;-72
2023/12/03 12:34:09;;;;;;;;;;;3.10;99.90;;;;;;5106161;28;19926;-73
2023/12/03 12:36:35;;;;;;;;;;;4.10;99.90;;;;;;5102855;28;19926;-73
2023/12/03 12:39:00;;;;;;;;;;;3.10;99.90;;;;;;5110330;27;19919;-73
2023/12/03 12:41:36;;;;;;;;;;;3.00;99.90;;;;;;5108183;27;19927;-73
2023/12/03 12:44:02;;;;;;;;;;;3.30;99.90;;;;;;5108714;28;19923;-72
2023/12/03 12:46:31;;;;;;;;;;;3.00;99.90;;;;;;5103567;28;19930;-73
2023/12/03 12:49:13;;;;;;;;;;;2.80;99.90;;;;;;5108622;28;19928;-72
2023/12/03 12:51:39;;;;;;;;;;;2.90;99.90;;;;;;5108972;28;20395;-72
2023/12/03 12:54:06;;;;;;;;;;;2.80;99.90;;;;;;5110170;28;19962;-74
2023/12/03 12:56:31;;;;;;;;;;;2.70;99.90;;;;;;5107891;28;20274;-73
2023/12/03 12:58:58;;;;;;;;;;;3.30;99.90;;;;;;5108881;28;19927;-73
2023/12/03 13:01:23;;;;;;;;;;;2.70;99.90;;;;;;5106948;27;20011;-73
2023/12/03 13:03:49;;;;;;;;;;;2.80;99.90;;;;;;5119379;27;20014;-71
2023/12/03 13:06:15;;;;;;;;;;;2.90;99.90;;;;;;5105819;28;19919;-72
2023/12/03 13:08:41;;;;;;;;;;;2.80;99.90;;;;;;5107895;28;19920;-73
2023/12/03 13:11:07;;;;;;;;;;;2.80;99.90;;;;;;5100696;28;19930;-72
2023/12/03 13:13:33;;;;;;;;;;;2.80;99.90;;;;;;5105281;27;19927;-75
2023/12/03 13:15:58;;;;;;;;;;;2.80;99.90;;;;;;5105024;28;19931;-75
2023/12/03 13:18:24;;;;;;;;;;;2.90;99.90;;;;;;5111218;27;20572;-73
2023/12/03 13:20:50;;;;;;;;;;;2.90;99.90;;;;;;5119202;27;20354;-73
2023/12/03 13:23:16;;;;;;;;;;;3.00;99.90;;;;;;5123379;27;19934;-73
2023/12/03 13:25:42;;;;;;;;;;;3.00;99.90;;;;;;5113711;27;19919;-75
2023/12/03 13:28:08;;;;;;;;;;;3.70;99.90;;;;;;5122184;27;19919;-75
2023/12/03 13:30:34;;;;;;;;;;;3.10;99.90;;;;;;5121120;27;19993;-75
2023/12/03 13:32:59;;;;;;;;;;;3.50;99.90;;;;;;5116397;27;19954;-75
2023/12/03 13:35:25;;;;;;;;;;;3.10;99.90;;;;;;5119733;27;19919;-70
2023/12/03 13:37:50;;;;;;;;;;;4.10;99.90;;;;;;5112946;27;20037;-72
2023/12/03 13:40:16;;;;;;;;;;;3.20;99.90;;;;;;5117859;27;19923;-72
2023/12/03 13:42:49;;;;;;;;;;;2.90;99.90;;;;;;5115979;27;19927;-74
2023/12/03 13:45:15;;;;;;;;;;;2.90;99.90;;;;;;5108127;27;20359;-76
2023/12/03 13:47:40;;;;;;;;;;;2.80;99.90;;;;;;5114016;27;20210;-74
2023/12/03 13:50:06;;;;;;;;;;;2.60;99.90;;;;;;5116976;27;20378;-72
2023/12/03 13:52:32;;;;;;;;;;;2.60;99.90;;;;;;5111097;27;19927;-71
2023/12/03 13:54:58;;;;;;;;;;;2.50;99.90;;;;;;5113810;28;20548;-71
2023/12/03 13:57:24;;;;;;;;;;;2.40;99.90;;;;;;5112529;28;19972;-73
2023/12/03 13:59:50;;;;;;;;;;;2.50;99.90;;;;;;5119752;28;20302;-72
2023/12/03 14:02:16;;;;;;;;;;;2.30;99.90;;;;;;5112515;28;20389;-72
2023/12/03 14:04:41;;;;;;;;;;;2.20;99.90;;;;;;5111701;28;20048;-75
2023/12/03 14:07:07;;;;;;;;;;;2.20;99.90;;;;;;5114506;28;19934;-73
2023/12/03 14:09:33;;;;;;;;;;;2.20;99.90;;;;;;5112867;28;20055;-74
2023/12/03 14:11:59;;;;;;;;;;;2.10;99.90;;;;;;5113789;27;20022;-74
2023/12/03 14:14:24;;;;;;;;;;;2.00;99.90;;;;;;5118559;28;19984;-74
2023/12/03 14:16:54;;;;;;;;;;;2.10;99.90;;;;;;5113804;28;20279;-72
2023/12/03 14:19:19;;;;;;;;;;;1.90;99.90;;;;;;5115710;27;19919;-72